Disclaimer

Please do not use the information listed here in-flight or in-navigation, as they are not provided to us by the airports but are provided by volunteers, so they might be outdated.

Search


Regions


Airport information page

Radio informations:
Tower (TWR) - 118.3 MHz
Approach (APP) - 118.9 MHz

Airport informations:
Latitude: 34° 03' 05.28" N
Longitude: 006° 45' 05.47" W
Elevation: 276 feet - 84 meters
Operating hours: 24 hour operations
Operating agency: Military-civil joint use airport
Timezone: UTC 0
Fuel: Jet A1, without icing nhibitor.

Aviation Gasoline (AVGAS), octane unknown.

100/130 MIL Spec, low lead, aviation gasoline (BLUE)

Runway information:
04/22 - 11483 x 148 feet< - >3500 x 45 meters

Recent METARs:
GMME 130400Z VRB01KT 5000 SCT013 SCT016 BKN100 13/12 Q1017 NOSIG
GMME 130430Z 05001KT 9999 4500 SCT013 SCT016 BKN100 13/12 Q1017 NOSIG
GMME 130500Z VRB02KT 5000 SCT013 SCT016 BKN100 13/12 Q1017 NOSIG

Airport on the map: